Overview Statistics Trail Chart Weather Telemetry Raw packets
 

This is the latest recevied weather packets stored in our database for station/object TA2LKM-11. If no packets are shown the sender has not sent any weather packets the latest 10 day(s).

<< 37 38 39 40 41 42 43 >>
Time Temp. Humidity Pressure Rain* Wind** Luminosity Snow
1788112512 27.78° C 43% 1015.2 hPa - - - -
1788111612 27.78° C 42% 1015 hPa - - - -
1788110711 27.78° C 42% 1014.6 hPa - - - -
1788109810 27.78° C 42% 1014.4 hPa - - - -
1788108910 28.33° C 42% 1014.2 hPa - - - -
1788108009 28.89° C 42% 1014 hPa - - - -
1788107108 28.89° C 42% 1014 hPa - - - -
1788101649 33.33° C 100% 764.9 hPa - - - -
1788099792 32.22° C 38% 1014 hPa - - - -
1788098880 32.22° C 38% 1014 hPa - - - -
1788098860 0° C 100% 0.6 hPa - - - -
1788098786 32.22° C 38% 1014 hPa - - - -
1788098749 32.22° C 38% 1014 hPa - - - -
1788098714 32.22° C 38% 1013.9 hPa - - - -
1788098696 32.22° C 38% 1014 hPa - - - -
1788098675 32.78° C 37% 1014 hPa - - - -
1788098657 0° C 100% 0.6 hPa - - - -
1788098624 32.22° C 37% 1013.9 hPa - - - -
1788098601 32.22° C 37% 1014 hPa - - - -
1788098549 32.22° C 37% 1014 hPa - - - -
1788084988 32.78° C 41% 1015.5 hPa - - - -
1788084087 32.78° C 42% 1015.6 hPa - - - -
1788077824 33.33° C 41% 1016.6 hPa - - - -
1788076924 32.78° C 41% 1016.8 hPa - - - -
1788076023 32.22° C 43% 1016.7 hPa - - - -

* Rain since midnight (hover to see other rain measurements)
** Current wind speed in m/s (hover to see current wind gust speed)